Time;durP1;ratioP1;P1;durP2;ratioP2;P2;SDS_P1;SDS_P2;PMS_P1;PMS_P2;Temp;Humidity;BMP_temperature;BMP_pressure;BME280_temperature;BME280_humidity;BME280_pressure;Samples;Min_cycle;Max_cycle;Signal;HPM_P1;HPM_P2
2023/04/21 00:01:33;;;;;;;3.22;2.13;;;10.60;82.60;;;;;;5049967;28;21976;-71
2023/04/21 00:03:59;;;;;;;2.60;2.40;;;10.60;82.80;;;;;;5053855;28;20172;-71
2023/04/21 00:06:25;;;;;;;2.53;2.42;;;10.50;82.80;;;;;;5054438;28;20715;-72
2023/04/21 00:08:51;;;;;;;2.35;2.03;;;10.40;83.00;;;;;;5057162;28;20586;-71
2023/04/21 00:11:17;;;;;;;2.60;2.40;;;10.50;82.50;;;;;;5056431;28;20250;-71
2023/04/21 00:13:43;;;;;;;3.00;2.13;;;10.50;82.60;;;;;;5052289;28;20207;-71
2023/04/21 00:16:09;;;;;;;2.47;2.20;;;10.50;82.40;;;;;;5054842;28;20184;-71
2023/04/21 00:18:35;;;;;;;2.13;2.03;;;10.60;82.20;;;;;;5051367;28;20183;-71
2023/04/21 00:21:01;;;;;;;2.20;2.10;;;10.70;81.70;;;;;;5048905;28;20183;-71
2023/04/21 00:23:26;;;;;;;1.63;1.58;;;10.70;81.30;;;;;;5051395;28;20188;-71
2023/04/21 00:25:52;;;;;;;1.92;1.92;;;10.70;81.20;;;;;;5055894;28;20693;-71
2023/04/21 00:28:18;;;;;;;2.15;2.03;;;10.70;81.40;;;;;;5057496;28;20180;-71
2023/04/21 00:30:43;;;;;;;2.40;2.30;;;10.60;81.50;;;;;;5056937;28;20180;-71
2023/04/21 00:33:09;;;;;;;2.30;2.30;;;10.70;81.20;;;;;;5048531;28;20638;-71
2023/04/21 00:35:35;;;;;;;2.05;1.95;;;10.60;81.40;;;;;;5053031;28;20187;-71
2023/04/21 00:38:00;;;;;;;2.38;2.03;;;10.60;81.40;;;;;;5054337;28;20183;-72
2023/04/21 00:40:26;;;;;;;1.95;1.85;;;10.60;81.60;;;;;;5052890;28;20183;-71
2023/04/21 00:42:52;;;;;;;2.58;2.47;;;10.60;81.60;;;;;;5058602;28;20719;-71
2023/04/21 00:45:18;;;;;;;2.22;2.10;;;10.60;81.40;;;;;;5055665;28;20249;-71
2023/04/21 00:47:44;;;;;;;2.33;2.17;;;10.70;81.20;;;;;;5053639;28;20184;-71
2023/04/21 00:50:10;;;;;;;2.47;2.05;;;10.60;81.10;;;;;;5052616;28;20277;-71
2023/04/21 00:52:39;;;;;;;2.60;2.40;;;10.60;81.40;;;;;;5054594;28;20179;-71
2023/04/21 00:55:06;;;;;;;2.30;2.20;;;10.60;81.30;;;;;;5050194;28;20192;-71
2023/04/21 00:57:34;;;;;;;2.83;2.05;;;10.70;80.90;;;;;;5056614;28;20206;-71
2023/04/21 01:00:00;;;;;;;2.58;2.45;;;10.70;80.80;;;;;;5051514;28;20179;-71
2023/04/21 01:02:27;;;;;;;2.42;2.05;;;10.70;80.80;;;;;;5049074;28;20210;-71
2023/04/21 01:04:52;;;;;;;3.45;2.20;;;10.60;80.80;;;;;;5053662;28;20670;-71
2023/04/21 01:07:19;;;;;;;1.67;1.67;;;10.60;81.00;;;;;;5050002;28;20199;-70
2023/04/21 01:09:44;;;;;;;2.15;2.05;;;10.50;81.10;;;;;;5055650;28;20183;-70
2023/04/21 01:12:12;;;;;;;2.17;2.08;;;10.50;81.10;;;;;;5050797;28;20183;-70
2023/04/21 01:14:39;;;;;;;2.17;2.08;;;10.60;80.90;;;;;;5052825;28;20175;-70
2023/04/21 01:17:06;;;;;;;2.08;1.98;;;10.60;80.80;;;;;;5055395;28;20938;-70
2023/04/21 01:19:38;;;;;;;2.03;1.92;;;10.50;81.00;;;;;;5052199;28;20668;-70
2023/04/21 01:22:09;;;;;;;2.10;2.00;;;10.50;81.10;;;;;;5054836;28;20215;-71
2023/04/21 01:24:48;;;;;;;2.35;2.15;;;10.50;81.00;;;;;;5051311;28;20633;-71
2023/04/21 01:27:17;;;;;;;2.20;2.00;;;10.50;80.90;;;;;;5054762;28;20193;-71
2023/04/21 01:29:45;;;;;;;1.92;1.75;;;10.50;80.80;;;;;;5055723;28;20644;-71
2023/04/21 01:32:20;;;;;;;1.88;1.77;;;10.50;81.00;;;;;;5052261;28;20183;-72
2023/04/21 01:34:46;;;;;;;2.85;1.73;;;10.50;80.80;;;;;;5053874;28;20187;-71
2023/04/21 01:37:15;;;;;;;1.98;1.88;;;10.50;81.10;;;;;;5050412;28;20175;-71
2023/04/21 01:39:43;;;;;;;1.70;1.70;;;10.40;81.20;;;;;;5051963;28;20183;-71
2023/04/21 01:42:09;;;;;;;2.47;2.28;;;10.40;81.20;;;;;;5048263;28;20994;-71
2023/04/21 01:44:36;;;;;;;1.83;1.73;;;10.30;81.50;;;;;;5052240;28;20232;-71
2023/04/21 01:47:02;;;;;;;1.90;1.90;;;10.30;81.60;;;;;;5043321;28;20183;-71
2023/04/21 01:49:27;;;;;;;2.15;2.05;;;10.20;81.90;;;;;;5050242;28;20191;-71
2023/04/21 01:51:53;;;;;;;2.33;2.22;;;10.10;82.00;;;;;;5050523;28;20188;-72
2023/04/21 01:54:19;;;;;;;1.90;1.88;;;10.10;82.30;;;;;;5052120;28;20274;-72
2023/04/21 01:56:45;;;;;;;1.88;1.77;;;10.10;82.30;;;;;;5051705;28;20191;-71
2023/04/21 01:59:10;;;;;;;1.83;1.83;;;10.00;82.50;;;;;;5050941;28;20172;-71
2023/04/21 02:01:36;;;;;;;2.17;1.88;;;9.90;82.70;;;;;;5051657;28;20217;-72
2023/04/21 02:04:02;;;;;;;2.63;1.63;;;9.90;82.70;;;;;;5050120;28;20182;-71
2023/04/21 02:06:30;;;;;;;2.17;1.88;;;9.90;82.80;;;;;;5051487;28;20179;-71
2023/04/21 02:08:57;;;;;;;3.90;2.10;;;9.80;82.90;;;;;;5050935;28;20182;-71
2023/04/21 02:11:24;;;;;;;2.20;1.98;;;9.80;82.90;;;;;;5046885;28;20183;-71
2023/04/21 02:13:53;;;;;;;1.95;1.85;;;9.80;83.00;;;;;;5055239;28;20189;-71
2023/04/21 02:16:19;;;;;;;2.35;2.15;;;9.70;83.40;;;;;;5055560;28;20273;-71
2023/04/21 02:18:46;;;;;;;1.85;1.75;;;9.70;83.50;;;;;;5054485;28;20569;-71
2023/04/21 02:21:11;;;;;;;1.95;1.85;;;9.70;83.60;;;;;;5052588;28;20561;-71
2023/04/21 02:23:37;;;;;;;1.92;1.85;;;9.70;83.40;;;;;;5054724;28;20186;-71
2023/04/21 02:26:03;;;;;;;3.70;2.03;;;9.70;83.30;;;;;;5046885;28;20191;-71
2023/04/21 02:28:30;;;;;;;2.60;2.10;;;9.70;83.60;;;;;;5049730;28;20180;-71
2023/04/21 02:30:56;;;;;;;2.38;2.17;;;9.70;83.60;;;;;;5053694;28;20256;-71
2023/04/21 02:33:22;;;;;;;2.17;2.08;;;9.70;83.60;;;;;;5049272;28;20258;-71
2023/04/21 02:35:47;;;;;;;1.98;1.88;;;9.70;83.60;;;;;;5050468;28;20175;-71
2023/04/21 02:38:13;;;;;;;1.73;1.65;;;9.90;83.20;;;;;;5051015;28;20183;-71
2023/04/21 02:40:39;;;;;;;2.40;2.20;;;10.00;82.80;;;;;;5051616;28;20199;-71
2023/04/21 02:43:05;;;;;;;2.20;2.10;;;10.10;82.60;;;;;;5048564;28;20219;-71
2023/04/21 02:45:31;;;;;;;2.65;2.13;;;10.10;82.60;;;;;;5049248;28;20183;-71
2023/04/21 02:47:58;;;;;;;2.38;2.22;;;10.10;82.70;;;;;;5047893;28;20184;-71
2023/04/21 02:50:24;;;;;;;3.05;2.03;;;10.10;82.80;;;;;;5046555;28;20180;-71
2023/04/21 02:52:49;;;;;;;2.10;1.90;;;10.10;82.80;;;;;;5055618;28;20199;-70
2023/04/21 02:55:15;;;;;;;6.18;2.13;;;10.10;82.80;;;;;;5047667;28;20688;-71
2023/04/21 02:57:41;;;;;;;2.63;2.53;;;10.10;82.90;;;;;;5055836;28;20660;-71
2023/04/21 03:00:08;;;;;;;2.15;2.00;;;10.20;82.90;;;;;;5051788;28;20652;-71
2023/04/21 03:02:34;;;;;;;2.22;2.13;;;10.20;82.80;;;;;;5048221;28;20281;-71
2023/04/21 03:04:59;;;;;;;2.47;1.90;;;10.20;82.80;;;;;;5053746;28;20176;-71
2023/04/21 03:07:25;;;;;;;2.95;2.47;;;10.30;82.80;;;;;;5051080;28;20184;-71
2023/04/21 03:09:50;;;;;;;2.15;2.13;;;10.30;82.80;;;;;;5051942;28;20175;-70
2023/04/21 03:12:16;;;;;;;2.15;1.80;;;10.30;82.80;;;;;;5053147;28;20269;-70
2023/04/21 03:14:42;;;;;;;2.40;2.30;;;10.40;82.70;;;;;;5048422;28;20226;-70
2023/04/21 03:17:07;;;;;;;3.58;1.90;;;10.40;82.60;;;;;;5050976;28;20172;-71
2023/04/21 03:19:33;;;;;;;2.65;2.45;;;10.40;82.40;;;;;;5049693;28;20716;-71
2023/04/21 03:21:59;;;;;;;2.17;2.05;;;10.40;82.40;;;;;;5050716;28;20241;-71
2023/04/21 03:24:25;;;;;;;4.30;2.55;;;10.40;82.50;;;;;;5052215;28;20651;-70
2023/04/21 03:26:51;;;;;;;2.58;2.42;;;10.40;82.40;;;;;;5054261;28;20187;-69
2023/04/21 03:29:17;;;;;;;2.28;2.17;;;10.40;82.40;;;;;;5050910;28;20176;-69
2023/04/21 03:31:43;;;;;;;2.22;2.13;;;10.40;82.30;;;;;;5046982;28;20931;-71
2023/04/21 03:34:08;;;;;;;1.70;1.63;;;10.40;82.30;;;;;;5055114;28;20265;-70
2023/04/21 03:36:34;;;;;;;2.22;2.13;;;10.50;82.10;;;;;;5054001;28;20187;-70
2023/04/21 03:39:00;;;;;;;2.22;2.08;;;10.50;82.10;;;;;;5053007;28;20183;-70
2023/04/21 03:41:26;;;;;;;3.10;2.85;;;10.50;81.90;;;;;;5052264;28;20179;-71
2023/04/21 03:43:51;;;;;;;1.88;1.77;;;10.60;81.60;;;;;;5052200;28;20259;-69
2023/04/21 03:46:18;;;;;;;2.00;1.85;;;10.60;81.40;;;;;;5053644;28;20186;-69
2023/04/21 03:48:45;;;;;;;2.42;2.28;;;10.60;81.30;;;;;;5050803;28;20183;-71
2023/04/21 03:51:11;;;;;;;1.85;1.85;;;10.70;81.30;;;;;;5051680;28;20275;-71
2023/04/21 03:53:36;;;;;;;3.78;2.45;;;10.60;81.40;;;;;;5053642;28;20627;-69
2023/04/21 03:56:02;;;;;;;2.45;2.35;;;10.60;81.40;;;;;;5056611;28;20197;-71
2023/04/21 03:58:28;;;;;;;2.55;2.42;;;10.60;81.20;;;;;;5057976;28;20172;-71
2023/04/21 04:00:53;;;;;;;3.35;2.35;;;10.60;81.40;;;;;;5050850;28;20598;-71
2023/04/21 04:03:19;;;;;;;2.67;2.30;;;10.50;81.60;;;;;;5055619;28;20283;-69
2023/04/21 04:05:45;;;;;;;2.42;2.33;;;10.50;81.80;;;;;;5052032;28;20190;-69
2023/04/21 04:08:10;;;;;;;2.50;2.35;;;10.50;81.80;;;;;;5047456;28;20183;-70
2023/04/21 04:10:36;;;;;;;2.67;2.47;;;10.50;81.90;;;;;;5055502;28;20183;-70
2023/04/21 04:13:02;;;;;;;2.22;2.13;;;10.50;81.90;;;;;;5058685;28;20766;-70
2023/04/21 04:15:28;;;;;;;2.83;2.72;;;10.60;81.60;;;;;;5054006;28;20202;-70
2023/04/21 04:17:54;;;;;;;3.38;3.17;;;10.60;81.50;;;;;;5052822;28;20184;-70
2023/04/21 04:20:20;;;;;;;3.28;2.90;;;10.60;81.60;;;;;;5053479;28;20185;-69
2023/04/21 04:22:46;;;;;;;2.85;2.53;;;10.60;81.50;;;;;;5051884;28;20296;-70
2023/04/21 04:25:13;;;;;;;2.65;2.33;;;10.60;81.60;;;;;;5057006;28;20187;-69
2023/04/21 04:27:40;;;;;;;2.60;2.47;;;10.70;81.50;;;;;;5056089;28;20188;-70
2023/04/21 04:30:06;;;;;;;2.95;2.75;;;10.70;81.50;;;;;;5053533;28;20188;-70
2023/04/21 04:32:36;;;;;;;2.50;2.40;;;10.70;81.50;;;;;;5053454;28;20735;-71
2023/04/21 04:35:03;;;;;;;3.33;3.17;;;10.80;81.30;;;;;;5048091;28;20577;-73
2023/04/21 04:37:28;;;;;;;3.13;2.92;;;10.80;81.30;;;;;;5052959;28;20237;-72
2023/04/21 04:39:55;;;;;;;5.70;3.25;;;10.80;81.10;;;;;;5051682;28;20202;-73
2023/04/21 04:42:21;;;;;;;4.63;2.72;;;10.90;81.10;;;;;;5052468;28;20219;-72
2023/04/21 04:44:46;;;;;;;2.90;2.70;;;11.00;80.80;;;;;;5050293;28;20237;-72
2023/04/21 04:47:12;;;;;;;2.83;2.60;;;11.00;80.70;;;;;;5052054;28;20244;-72
2023/04/21 04:49:38;;;;;;;2.70;2.60;;;11.10;80.40;;;;;;5045740;28;20265;-73
2023/04/21 04:52:03;;;;;;;2.97;2.83;;;11.10;80.40;;;;;;5051532;28;20199;-73
2023/04/21 04:54:29;;;;;;;3.22;2.83;;;11.20;80.30;;;;;;5051271;28;20651;-72
2023/04/21 04:56:56;;;;;;;2.42;2.33;;;11.20;80.30;;;;;;5054125;28;20179;-71
2023/04/21 04:59:22;;;;;;;2.97;2.78;;;11.20;80.20;;;;;;5045362;28;20711;-73
2023/04/21 05:01:48;;;;;;;2.30;2.20;;;11.30;80.10;;;;;;5047906;28;20211;-74
2023/04/21 05:04:15;;;;;;;2.85;2.65;;;11.40;79.70;;;;;;5052502;28;20187;-73
2023/04/21 05:06:41;;;;;;;3.10;3.00;;;11.50;79.50;;;;;;5054823;28;20214;-74
2023/04/21 05:09:07;;;;;;;2.42;2.28;;;11.40;79.60;;;;;;5052791;28;20748;-74
2023/04/21 05:11:33;;;;;;;3.38;3.17;;;11.50;79.50;;;;;;5050149;28;20254;-74
2023/04/21 05:13:58;;;;;;;2.85;2.63;;;11.50;79.60;;;;;;5052406;28;20306;-73
2023/04/21 05:16:24;;;;;;;3.63;3.28;;;11.60;79.50;;;;;;5050075;28;20172;-73
2023/04/21 05:18:52;;;;;;;3.10;2.83;;;11.60;79.50;;;;;;5058576;28;20186;-74
2023/04/21 05:21:28;;;;;;;3.60;2.80;;;11.60;79.50;;;;;;5051655;28;20182;-73
2023/04/21 05:23:55;;;;;;;2.63;2.45;;;11.70;79.30;;;;;;5057271;28;20206;-72
2023/04/21 05:26:21;;;;;;;2.42;2.30;;;11.70;79.20;;;;;;5056042;28;20274;-74
2023/04/21 05:28:47;;;;;;;2.92;2.83;;;11.80;78.90;;;;;;5053330;28;20191;-73
2023/04/21 05:31:13;;;;;;;3.03;2.67;;;12.00;78.80;;;;;;5051721;28;20199;-73
2023/04/21 05:33:39;;;;;;;2.60;2.50;;;12.10;78.50;;;;;;5050817;28;20665;-73
2023/04/21 05:36:08;;;;;;;3.30;3.03;;;12.20;78.20;;;;;;5050182;28;20214;-73
2023/04/21 05:38:35;;;;;;;2.85;2.65;;;12.20;78.10;;;;;;5056975;28;20588;-74
2023/04/21 05:41:01;;;;;;;3.25;2.95;;;12.40;78.00;;;;;;5052642;28;20182;-73
2023/04/21 05:43:27;;;;;;;3.15;2.95;;;12.50;77.80;;;;;;5051301;28;20267;-74
2023/04/21 05:45:52;;;;;;;2.80;2.60;;;12.40;77.60;;;;;;5059461;28;20191;-73
2023/04/21 05:48:18;;;;;;;3.40;3.10;;;12.30;78.00;;;;;;5054478;28;20180;-73
2023/04/21 05:50:44;;;;;;;3.45;2.70;;;12.20;78.40;;;;;;5053361;28;20275;-73
2023/04/21 05:53:10;;;;;;;2.22;2.13;;;12.40;78.20;;;;;;5054842;28;20684;-73
2023/04/21 05:55:36;;;;;;;3.42;3.13;;;12.30;77.90;;;;;;5052171;28;20874;-73
2023/04/21 05:58:03;;;;;;;2.92;2.72;;;12.40;78.00;;;;;;5051920;28;20200;-73
2023/04/21 06:00:29;;;;;;;2.90;2.70;;;12.30;78.20;;;;;;5048868;28;20218;-72
2023/04/21 06:02:54;;;;;;;3.38;2.45;;;12.30;78.10;;;;;;5049043;28;20257;-74
2023/04/21 06:05:20;;;;;;;2.90;2.65;;;12.40;77.80;;;;;;5050776;28;20179;-73
2023/04/21 06:07:46;;;;;;;2.72;2.53;;;12.30;78.00;;;;;;5048448;28;20665;-73
2023/04/21 06:10:13;;;;;;;3.67;2.97;;;12.20;78.50;;;;;;5048721;28;20176;-73
2023/04/21 06:12:38;;;;;;;4.15;2.78;;;12.20;78.70;;;;;;5056232;28;20188;-73
2023/04/21 06:15:05;;;;;;;3.30;3.10;;;12.30;78.70;;;;;;5046173;28;20259;-73
2023/04/21 06:17:31;;;;;;;4.25;2.60;;;12.40;78.50;;;;;;5054312;28;20180;-73
2023/04/21 06:19:56;;;;;;;2.85;2.65;;;12.30;78.70;;;;;;5051446;28;20175;-73
2023/04/21 06:22:22;;;;;;;2.75;2.53;;;12.30;78.90;;;;;;5053688;28;20215;-71
2023/04/21 06:24:48;;;;;;;2.97;2.65;;;12.30;78.90;;;;;;5060012;28;20179;-72
2023/04/21 06:27:14;;;;;;;3.08;2.88;;;12.40;79.10;;;;;;5057012;28;20199;-71
2023/04/21 06:29:41;;;;;;;3.15;2.92;;;12.30;79.10;;;;;;5049423;28;20257;-73
2023/04/21 06:32:07;;;;;;;3.03;2.83;;;12.40;78.90;;;;;;5053907;28;20202;-73
2023/04/21 06:34:33;;;;;;;2.67;2.55;;;12.40;78.90;;;;;;5055232;28;20184;-72
2023/04/21 06:36:58;;;;;;;3.30;3.10;;;12.40;79.10;;;;;;5053747;28;20240;-72
2023/04/21 06:39:24;;;;;;;5.32;3.10;;;12.40;79.40;;;;;;5052539;28;20176;-72
2023/04/21 06:41:50;;;;;;;2.88;2.65;;;12.50;79.30;;;;;;5053575;28;20234;-72
2023/04/21 06:44:16;;;;;;;3.03;2.33;;;12.50;78.90;;;;;;5054865;28;20174;-72
2023/04/21 06:46:41;;;;;;;3.13;2.83;;;12.50;78.70;;;;;;5057473;28;20202;-72
2023/04/21 06:49:08;;;;;;;2.88;2.67;;;12.50;79.10;;;;;;5055598;28;20874;-72
2023/04/21 06:51:34;;;;;;;2.75;2.55;;;12.40;79.10;;;;;;5053223;28;20594;-73
2023/04/21 06:54:00;;;;;;;2.88;2.67;;;12.30;79.60;;;;;;5051582;28;20195;-72
2023/04/21 06:56:26;;;;;;;2.78;2.58;;;12.40;79.80;;;;;;5053233;28;20904;-73
2023/04/21 06:58:52;;;;;;;2.70;2.60;;;12.50;79.40;;;;;;5050620;28;20267;-73
2023/04/21 07:01:18;;;;;;;3.30;3.03;;;12.70;79.40;;;;;;5054688;28;20214;-73
2023/04/21 07:03:45;;;;;;;3.53;2.45;;;12.70;78.70;;;;;;5052970;28;20258;-72
2023/04/21 07:06:11;;;;;;;2.90;2.70;;;12.60;78.70;;;;;;5049080;28;20191;-73
2023/04/21 07:08:37;;;;;;;3.13;2.47;;;12.70;79.10;;;;;;5047244;28;20179;-73
2023/04/21 07:11:03;;;;;;;2.55;2.45;;;12.90;78.90;;;;;;5056008;28;21564;-73
2023/04/21 07:13:29;;;;;;;4.85;2.80;;;13.00;78.50;;;;;;5055924;28;20245;-73
2023/04/21 07:15:55;;;;;;;2.70;2.30;;;13.20;78.50;;;;;;5050195;28;20912;-72
2023/04/21 07:18:20;;;;;;;2.70;2.60;;;13.40;78.10;;;;;;5051732;28;20183;-73
2023/04/21 07:20:46;;;;;;;2.60;2.50;;;13.40;77.60;;;;;;5050564;28;20725;-73
2023/04/21 07:23:12;;;;;;;4.25;2.92;;;13.60;77.40;;;;;;5049687;28;20246;-72
2023/04/21 07:25:38;;;;;;;3.75;2.70;;;13.60;77.10;;;;;;5052530;28;20183;-72
2023/04/21 07:28:04;;;;;;;3.78;3.13;;;13.70;76.80;;;;;;5055420;28;20190;-73
2023/04/21 07:30:30;;;;;;;4.60;3.22;;;13.80;76.70;;;;;;5053517;28;20256;-72
2023/04/21 07:32:56;;;;;;;2.67;2.38;;;13.80;76.40;;;;;;5050932;28;20193;-65
2023/04/21 07:35:22;;;;;;;2.40;2.30;;;13.80;75.80;;;;;;5049389;28;20234;-71
2023/04/21 07:37:48;;;;;;;3.92;2.65;;;13.90;75.30;;;;;;5054359;28;20187;-71
2023/04/21 07:40:14;;;;;;;2.90;2.30;;;14.00;75.20;;;;;;5042343;28;20269;-71
2023/04/21 07:42:39;;;;;;;2.45;2.35;;;14.20;75.20;;;;;;5048824;28;20247;-71
2023/04/21 07:45:06;;;;;;;2.45;2.35;;;14.40;74.90;;;;;;5050660;28;20237;-71
2023/04/21 07:47:33;;;;;;;2.97;2.78;;;14.40;74.60;;;;;;5049664;28;20578;-71
2023/04/21 07:49:58;;;;;;;4.18;2.95;;;14.60;74.30;;;;;;5052659;28;20186;-71
2023/04/21 07:52:24;;;;;;;2.45;2.35;;;14.60;74.10;;;;;;5050275;28;20180;-71
2023/04/21 07:54:50;;;;;;;2.70;2.60;;;14.60;73.90;;;;;;5055847;28;20195;-71
2023/04/21 07:57:16;;;;;;;2.75;2.55;;;14.70;74.10;;;;;;5048677;28;20180;-72
2023/04/21 07:59:42;;;;;;;2.58;2.45;;;14.90;73.20;;;;;;5051295;28;20171;-73
2023/04/21 08:02:08;;;;;;;2.58;2.47;;;14.90;72.70;;;;;;5055715;28;20207;-72
2023/04/21 08:04:34;;;;;;;4.38;2.50;;;14.80;72.10;;;;;;5049497;28;20180;-72
2023/04/21 08:06:59;;;;;;;3.42;3.03;;;14.80;72.50;;;;;;5045376;28;20285;-72
2023/04/21 08:09:25;;;;;;;3.17;2.88;;;14.80;72.10;;;;;;5046121;28;20191;-72
2023/04/21 08:11:51;;;;;;;2.72;2.53;;;14.80;72.70;;;;;;5052080;28;20195;-71
2023/04/21 08:14:17;;;;;;;3.35;2.75;;;14.90;73.10;;;;;;5044381;28;20211;-72
2023/04/21 08:16:43;;;;;;;2.88;2.70;;;15.10;72.60;;;;;;5045651;28;21458;-72
2023/04/21 08:19:08;;;;;;;3.08;2.80;;;15.40;71.70;;;;;;5059066;28;20202;-72
2023/04/21 08:21:35;;;;;;;5.50;2.75;;;15.50;71.10;;;;;;5048771;28;20265;-73
2023/04/21 08:24:01;;;;;;;3.50;3.30;;;15.60;71.00;;;;;;5051398;28;20183;-72
2023/04/21 08:26:28;;;;;;;2.75;2.55;;;15.70;70.60;;;;;;5050488;28;20813;-72
2023/04/21 08:28:55;;;;;;;5.70;2.60;;;15.70;70.70;;;;;;5051623;28;20180;-72
2023/04/21 08:31:21;;;;;;;3.05;2.30;;;15.80;70.60;;;;;;5049947;28;20546;-71
2023/04/21 08:33:47;;;;;;;3.92;2.42;;;15.80;70.20;;;;;;5048799;28;20187;-73
2023/04/21 08:36:13;;;;;;;2.28;2.17;;;15.80;70.10;;;;;;5054960;28;20244;-73
2023/04/21 08:38:41;;;;;;;2.55;2.45;;;16.00;70.10;;;;;;5049496;28;20187;-73
2023/04/21 08:41:08;;;;;;;2.28;2.25;;;16.20;70.00;;;;;;5050474;28;20241;-72
2023/04/21 08:43:33;;;;;;;3.28;2.47;;;16.50;69.00;;;;;;5059177;28;20306;-72
2023/04/21 08:46:04;;;;;;;3.05;2.88;;;16.60;68.50;;;;;;5055145;28;20276;-73
2023/04/21 08:48:34;;;;;;;5.30;3.13;;;16.60;68.40;;;;;;5053121;28;20187;-73
2023/04/21 08:51:01;;;;;;;3.65;2.78;;;16.60;68.60;;;;;;5053704;28;20221;-72
2023/04/21 08:53:27;;;;;;;2.63;2.53;;;16.60;68.50;;;;;;5053826;28;20196;-73
2023/04/21 08:55:55;;;;;;;2.67;2.53;;;16.60;68.40;;;;;;5048574;28;20679;-72
2023/04/21 08:58:21;;;;;;;3.20;2.92;;;16.90;68.30;;;;;;5054233;28;20262;-73
2023/04/21 09:00:48;;;;;;;3.17;2.35;;;17.10;67.80;;;;;;5050235;28;20188;-73
2023/04/21 09:03:23;;;;;;;2.55;2.45;;;17.10;68.00;;;;;;5055930;28;20762;-73
2023/04/21 09:05:58;;;;;;;2.67;2.47;;;17.10;67.00;;;;;;5046756;28;20194;-71
2023/04/21 09:08:24;;;;;;;2.42;2.33;;;16.90;67.60;;;;;;5051750;28;20175;-73
2023/04/21 09:10:53;;;;;;;1.83;1.73;;;17.10;67.80;;;;;;5050565;28;20175;-72
2023/04/21 09:13:20;;;;;;;2.50;2.40;;;17.50;66.90;;;;;;5051460;28;20175;-72
2023/04/21 09:15:53;;;;;;;2.17;1.98;;;17.60;65.90;;;;;;5052252;28;20186;-72
2023/04/21 09:18:21;;;;;;;2.65;2.55;;;17.60;66.30;;;;;;5053302;28;20191;-73
2023/04/21 09:20:49;;;;;;;2.58;2.40;;;17.90;66.00;;;;;;5052370;28;20565;-73
2023/04/21 09:23:16;;;;;;;2.55;2.40;;;18.60;63.90;;;;;;5046534;28;20222;-72
2023/04/21 09:25:43;;;;;;;2.55;2.45;;;18.80;63.30;;;;;;5051426;28;20578;-72
2023/04/21 09:28:13;;;;;;;2.28;2.17;;;18.60;63.00;;;;;;5046348;28;20207;-73
2023/04/21 09:30:41;;;;;;;2.42;2.33;;;18.80;63.50;;;;;;5045263;28;20190;-73
2023/04/21 09:33:13;;;;;;;3.35;2.42;;;18.80;63.10;;;;;;5046688;28;20602;-73
2023/04/21 09:35:39;;;;;;;1.83;1.77;;;18.70;63.30;;;;;;5044571;28;20184;-73
2023/04/21 09:38:12;;;;;;;11.73;1.80;;;19.40;61.70;;;;;;5047508;28;20197;-72
2023/04/21 09:40:39;;;;;;;3.85;2.22;;;20.20;59.40;;;;;;5043293;28;20643;-71
2023/04/21 09:43:05;;;;;;;1.75;1.75;;;21.00;58.30;;;;;;5050785;28;20306;-71
2023/04/21 09:45:32;;;;;;;5.90;2.15;;;21.70;56.90;;;;;;5046977;28;20184;-71
2023/04/21 09:48:00;;;;;;;2.20;2.10;;;22.20;56.30;;;;;;5052089;28;20571;-71
2023/04/21 09:50:26;;;;;;;4.78;2.00;;;21.40;57.80;;;;;;5052740;28;20232;-71
2023/04/21 09:52:54;;;;;;;2.65;2.55;;;20.80;57.80;;;;;;5041668;28;20203;-72
2023/04/21 09:55:30;;;;;;;2.70;2.60;;;20.40;58.90;;;;;;5042042;28;20267;-71
2023/04/21 09:58:01;;;;;;;2.42;2.33;;;19.90;59.80;;;;;;5048836;28;20192;-72
2023/04/21 10:00:27;;;;;;;2.55;2.38;;;19.70;60.70;;;;;;5045419;28;20290;-71
2023/04/21 10:02:56;;;;;;;2.42;2.33;;;19.00;61.30;;;;;;5050436;28;20310;-71
2023/04/21 10:05:21;;;;;;;2.22;2.00;;;19.00;61.00;;;;;;5049963;28;20671;-72
2023/04/21 10:07:49;;;;;;;2.58;1.83;;;19.10;60.90;;;;;;5051445;28;20176;-72
2023/04/21 10:10:25;;;;;;;2.08;2.08;;;18.80;61.40;;;;;;5050917;28;20195;-73
2023/04/21 10:12:51;;;;;;;2.08;1.95;;;18.60;61.20;;;;;;5044522;28;20178;-72
2023/04/21 10:15:33;;;;;;;1.98;1.88;;;18.60;62.40;;;;;;5051922;28;20616;-72
2023/04/21 10:18:21;;;;;;;2.92;1.83;;;18.80;62.10;;;;;;5049957;28;20171;-72
2023/04/21 10:20:52;;;;;;;2.28;2.17;;;19.00;62.40;;;;;;5046015;28;20661;-72
2023/04/21 10:23:46;;;;;;;2.15;2.15;;;18.90;62.60;;;;;;5048013;28;20268;-72
2023/04/21 10:26:19;;;;;;;2.25;2.08;;;18.80;63.20;;;;;;5047746;28;20175;-72
2023/04/21 10:28:44;;;;;;;2.30;2.28;;;18.80;63.40;;;;;;5043809;28;20186;-73
2023/04/21 10:31:21;;;;;;;2.20;2.10;;;18.70;63.00;;;;;;5050288;28;20673;-73
2023/04/21 10:34:09;;;;;;;4.93;2.45;;;18.70;63.50;;;;;;5054793;28;20672;-73
2023/04/21 10:36:41;;;;;;;2.10;2.00;;;18.50;62.90;;;;;;5054559;28;20240;-73
2023/04/21 10:39:07;;;;;;;2.65;2.20;;;18.70;63.10;;;;;;5051849;28;20175;-72
2023/04/21 10:41:34;;;;;;;2.60;2.50;;;19.40;62.40;;;;;;5053098;28;20195;-73
2023/04/21 10:44:10;;;;;;;3.60;2.13;;;20.00;61.20;;;;;;5049327;28;20274;-72
2023/04/21 10:46:38;;;;;;;2.88;2.22;;;20.40;60.30;;;;;;5052234;28;21005;-73
2023/04/21 10:49:28;;;;;;;2.70;2.30;;;20.50;60.10;;;;;;5048646;28;20308;-73
2023/04/21 10:52:03;;;;;;;4.57;2.47;;;20.40;59.70;;;;;;5046471;28;20171;-72
2023/04/21 10:54:42;;;;;;;2.95;2.78;;;20.20;59.90;;;;;;5049457;28;20280;-71
2023/04/21 10:57:16;;;;;;;2.42;2.17;;;20.00;59.50;;;;;;5047739;28;20205;-73
2023/04/21 10:59:42;;;;;;;2.45;2.35;;;19.20;59.70;;;;;;5056272;28;20183;-72
2023/04/21 11:02:12;;;;;;;3.60;2.30;;;18.60;61.00;;;;;;5054328;28;20203;-72
2023/04/21 11:04:43;;;;;;;2.90;2.10;;;18.80;62.50;;;;;;5053522;28;20183;-72
2023/04/21 11:07:25;;;;;;;2.42;2.33;;;19.50;60.60;;;;;;5048557;28;20175;-72
2023/04/21 11:10:05;;;;;;;3.42;1.92;;;19.90;60.10;;;;;;5053863;28;20198;-71
2023/04/21 11:12:33;;;;;;;2.13;2.10;;;20.10;60.80;;;;;;5046513;28;20187;-72
2023/04/21 11:15:01;;;;;;;5.25;2.55;;;20.30;59.90;;;;;;5043019;28;20191;-72
2023/04/21 11:17:27;;;;;;;2.47;2.33;;;20.60;60.00;;;;;;5045935;28;20190;-72
2023/04/21 11:19:55;;;;;;;2.80;2.60;;;20.80;59.10;;;;;;5054695;28;20741;-72
2023/04/21 11:22:23;;;;;;;2.60;2.42;;;21.10;59.10;;;;;;5051855;28;20203;-72
2023/04/21 11:24:52;;;;;;;2.47;2.17;;;21.50;59.20;;;;;;5050829;28;20195;-72
2023/04/21 11:27:18;;;;;;;2.53;2.25;;;21.80;58.00;;;;;;5051345;28;20222;-72
2023/04/21 11:29:45;;;;;;;1.80;1.80;;;22.00;56.90;;;;;;5047996;28;20732;-73
2023/04/21 11:32:11;;;;;;;2.20;1.75;;;22.50;54.30;;;;;;5047579;28;20213;-72
2023/04/21 11:34:38;;;;;;;1.83;1.73;;;23.00;53.10;;;;;;5053494;28;20190;-72
2023/04/21 11:37:05;;;;;;;2.30;2.20;;;23.00;53.90;;;;;;5049301;28;20565;-72
2023/04/21 11:39:31;;;;;;;2.00;1.90;;;22.80;55.30;;;;;;5046033;28;20187;-72
2023/04/21 11:41:57;;;;;;;2.42;2.17;;;22.50;55.30;;;;;;5045622;28;20263;-72
2023/04/21 11:44:38;;;;;;;1.85;1.83;;;22.30;56.30;;;;;;5049392;28;20199;-72
2023/04/21 11:47:21;;;;;;;2.00;1.90;;;22.00;57.30;;;;;;5053716;28;20237;-72
2023/04/21 11:49:56;;;;;;;2.25;1.95;;;21.60;57.40;;;;;;5052911;28;20190;-72
2023/04/21 11:52:31;;;;;;;1.90;1.73;;;21.40;58.70;;;;;;5052035;28;20569;-72
2023/04/21 11:55:01;;;;;;;1.88;1.88;;;21.20;58.40;;;;;;5051500;28;20254;-72
2023/04/21 11:57:28;;;;;;;1.60;1.60;;;21.10;57.30;;;;;;5049320;28;20245;-72
2023/04/21 11:59:58;;;;;;;1.45;1.45;;;21.00;57.80;;;;;;5055407;28;20175;-71
2023/04/21 12:02:28;;;;;;;1.38;1.27;;;20.80;55.60;;;;;;5052050;28;20696;-71
2023/04/21 12:05:06;;;;;;;1.25;1.25;;;20.50;55.70;;;;;;5051223;28;20593;-72
2023/04/21 12:07:34;;;;;;;1.02;1.02;;;20.40;56.90;;;;;;5050030;28;20196;-72
2023/04/21 12:10:01;;;;;;;1.02;1.02;;;20.10;55.50;;;;;;5047464;28;20265;-70
2023/04/21 12:12:27;;;;;;;1.02;1.02;;;20.00;57.10;;;;;;5048415;28;20237;-73
2023/04/21 12:14:53;;;;;;;1.75;0.90;;;20.00;57.00;;;;;;5047136;28;20179;-73
2023/04/21 12:17:19;;;;;;;0.80;0.70;;;20.20;57.90;;;;;;5043417;28;20179;-73
2023/04/21 12:19:45;;;;;;;1.00;1.00;;;20.50;58.50;;;;;;5056027;28;20220;-71
2023/04/21 12:22:13;;;;;;;1.85;1.02;;;21.30;56.50;;;;;;5056672;28;20293;-72
2023/04/21 12:24:40;;;;;;;1.08;1.08;;;22.30;56.20;;;;;;5052091;28;20182;-71
2023/04/21 12:27:07;;;;;;;1.92;1.80;;;23.50;54.40;;;;;;5052431;28;20683;-71
2023/04/21 12:29:37;;;;;;;1.67;1.33;;;24.00;51.70;;;;;;5051293;28;20187;-71
2023/04/21 12:32:05;;;;;;;1.45;1.40;;;24.20;51.80;;;;;;5050723;28;20341;-71
2023/04/21 12:34:31;;;;;;;1.98;1.88;;;24.10;52.00;;;;;;5055208;28;20833;-71
2023/04/21 12:36:57;;;;;;;2.13;2.10;;;23.80;52.80;;;;;;5051425;28;20180;-71
2023/04/21 12:39:22;;;;;;;3.30;1.77;;;23.50;52.20;;;;;;5051658;28;20863;-71
2023/04/21 12:41:48;;;;;;;2.00;1.92;;;23.50;53.60;;;;;;5055335;28;20720;-71
2023/04/21 12:44:14;;;;;;;3.00;1.85;;;23.60;52.80;;;;;;5054872;28;20614;-71
2023/04/21 12:46:40;;;;;;;1.80;1.70;;;23.90;54.00;;;;;;5055981;28;20183;-72
2023/04/21 12:49:07;;;;;;;1.92;1.65;;;24.40;53.20;;;;;;5052423;28;20179;-71